CheckWX is a tool to help pilots better visualize weather data.  It is not intended as a substitute for an official pre-flight weather briefing.

08:09:54 UTC

HKML METAR
Malindi Airport
Malindi, Kenya
Current

1 hour ago

HKML 230700Z 21015KT 9999 SCT017 31/26 Q1011
Observed
Apr-23 @ 07:00 UTC
Wind
  • 210° at 15 KTS
Visibility
10,000+ meters
Flight Rules
VFR
Cloud Levels
  • Scattered at 1,700' AGL
Temperature
31°C / 88°F
Dewpoint
26°C / 79°F
Heat Index
39°C / 103°F
Humidity
75%
Altimeter
29.85" Hg
Pressure
1010.92 hPa
Previous

2 hours ago

HKML 230600Z 22010KT 9999 RA SCT016 30/26 Q1011
Observed
Apr-23 @ 06:00 UTC
Wind
  • 220° at 10 KTS
Visibility
10,000+ meters
Flight Rules
VFR
Conditions
Rain
Cloud Levels
  • Scattered at 1,600' AGL
Temperature
30°C / 86°F
Dewpoint
26°C / 79°F
Heat Index
37°C / 99°F
Humidity
79%
Altimeter
29.85" Hg
Pressure
1010.92 hPa
Previous

3 hours ago

HKML 230500Z 21012KT 9999 SCT017 30/25 Q1010
Observed
Apr-23 @ 05:00 UTC
Wind
  • 210° at 12 KTS
Visibility
10,000+ meters
Flight Rules
VFR
Cloud Levels
  • Scattered at 1,700' AGL
Temperature
30°C / 86°F
Dewpoint
25°C / 77°F
Heat Index
36°C / 97°F
Humidity
75%
Altimeter
29.82" Hg
Pressure
1009.92 hPa